sensor_id;sensor_type;location;lat;lon;timestamp;pressure;altitude;pressure_sealevel;temperature;humidity
74544;BME280;63016;55.030;38.710;2023-03-14T00:00:47;100018.84;;;-3.43;57.61
74544;BME280;63016;55.030;38.710;2023-03-14T00:03:12;100012.06;;;-3.44;57.77
74544;BME280;63016;55.030;38.710;2023-03-14T00:05:37;100019.66;;;-3.42;57.76
74544;BME280;63016;55.030;38.710;2023-03-14T00:08:03;100013.75;;;-3.43;57.79
74544;BME280;63016;55.030;38.710;2023-03-14T00:10:29;100017.13;;;-3.42;58.23
74544;BME280;63016;55.030;38.710;2023-03-14T00:12:54;100015.22;;;-3.39;58.64
74544;BME280;63016;55.030;38.710;2023-03-14T00:15:20;99999.09;;;-3.39;58.00
74544;BME280;63016;55.030;38.710;2023-03-14T00:17:45;99986.56;;;-3.44;58.19
74544;BME280;63016;55.030;38.710;2023-03-14T00:20:11;99999.69;;;-3.34;58.17
74544;BME280;63016;55.030;38.710;2023-03-14T00:22:38;99994.53;;;-3.32;58.50
74544;BME280;63016;55.030;38.710;2023-03-14T00:25:05;99989.25;;;-3.29;58.17
74544;BME280;63016;55.030;38.710;2023-03-14T00:27:31;99989.94;;;-3.26;58.71
74544;BME280;63016;55.030;38.710;2023-03-14T00:29:57;99984.72;;;-3.23;58.55
74544;BME280;63016;55.030;38.710;2023-03-14T00:32:23;99963.03;;;-3.31;58.62
74544;BME280;63016;55.030;38.710;2023-03-14T00:34:49;99983.56;;;-3.17;58.50
74544;BME280;63016;55.030;38.710;2023-03-14T00:37:14;99974.91;;;-3.15;58.48
74544;BME280;63016;55.030;38.710;2023-03-14T00:39:40;99971.56;;;-3.15;58.58
74544;BME280;63016;55.030;38.710;2023-03-14T00:42:05;99975.50;;;-3.10;58.55
74544;BME280;63016;55.030;38.710;2023-03-14T00:44:31;99953.47;;;-3.11;58.47
74544;BME280;63016;55.030;38.710;2023-03-14T00:46:57;99957.41;;;-3.05;58.62
74544;BME280;63016;55.030;38.710;2023-03-14T00:49:23;99957.13;;;-2.99;58.57
74544;BME280;63016;55.030;38.710;2023-03-14T00:51:49;99949.25;;;-2.94;58.88
74544;BME280;63016;55.030;38.710;2023-03-14T00:54:14;99949.16;;;-2.93;59.17
74544;BME280;63016;55.030;38.710;2023-03-14T00:56:40;99947.19;;;-2.88;59.52
74544;BME280;63016;55.030;38.710;2023-03-14T00:59:05;99936.88;;;-2.86;59.11
74544;BME280;63016;55.030;38.710;2023-03-14T01:01:31;99946.72;;;-2.78;59.21
74544;BME280;63016;55.030;38.710;2023-03-14T01:03:57;99947.22;;;-2.72;59.10
74544;BME280;63016;55.030;38.710;2023-03-14T01:06:27;99931.81;;;-2.70;59.16
74544;BME280;63016;55.030;38.710;2023-03-14T01:08:54;99948.63;;;-2.66;59.09
74544;BME280;63016;55.030;38.710;2023-03-14T01:11:26;99938.25;;;-2.63;59.51
74544;BME280;63016;55.030;38.710;2023-03-14T01:13:52;99932.81;;;-2.57;58.70
74544;BME280;63016;55.030;38.710;2023-03-14T01:16:19;99938.59;;;-2.53;58.88
74544;BME280;63016;55.030;38.710;2023-03-14T01:18:47;99929.19;;;-2.53;58.94
74544;BME280;63016;55.030;38.710;2023-03-14T01:21:24;99926.28;;;-2.47;59.29
74544;BME280;63016;55.030;38.710;2023-03-14T01:23:51;99927.06;;;-2.45;59.53
74544;BME280;63016;55.030;38.710;2023-03-14T01:26:19;99924.75;;;-2.49;59.51
74544;BME280;63016;55.030;38.710;2023-03-14T01:28:47;99927.78;;;-2.43;59.45
74544;BME280;63016;55.030;38.710;2023-03-14T01:31:13;99930.03;;;-2.37;59.75
74544;BME280;63016;55.030;38.710;2023-03-14T01:33:39;99929.03;;;-2.34;59.59
74544;BME280;63016;55.030;38.710;2023-03-14T01:36:06;99921.13;;;-2.29;59.53
74544;BME280;63016;55.030;38.710;2023-03-14T01:38:34;99910.56;;;-2.23;60.04
74544;BME280;63016;55.030;38.710;2023-03-14T01:41:00;99914.78;;;-2.22;59.72
74544;BME280;63016;55.030;38.710;2023-03-14T01:43:27;99909.22;;;-2.15;59.64
74544;BME280;63016;55.030;38.710;2023-03-14T01:51:37;99906.16;;;-2.05;59.74
74544;BME280;63016;55.030;38.710;2023-03-14T01:56:40;99913.50;;;-1.99;60.17
74544;BME280;63016;55.030;38.710;2023-03-14T01:59:08;99918.28;;;-1.93;60.02
74544;BME280;63016;55.030;38.710;2023-03-14T02:01:35;99916.34;;;-1.90;60.20
74544;BME280;63016;55.030;38.710;2023-03-14T02:04:02;99913.53;;;-1.85;60.19
74544;BME280;63016;55.030;38.710;2023-03-14T02:06:37;99908.16;;;-1.81;59.86
74544;BME280;63016;55.030;38.710;2023-03-14T02:09:05;99900.41;;;-1.79;60.20
74544;BME280;63016;55.030;38.710;2023-03-14T02:11:31;99902.97;;;-1.79;60.05
74544;BME280;63016;55.030;38.710;2023-03-14T02:13:57;99882.25;;;-1.74;60.46
74544;BME280;63016;55.030;38.710;2023-03-14T02:16:24;99888.13;;;-1.72;60.19
74544;BME280;63016;55.030;38.710;2023-03-14T02:18:49;99880.19;;;-1.68;60.21
74544;BME280;63016;55.030;38.710;2023-03-14T02:21:34;99873.16;;;-1.64;59.99
74544;BME280;63016;55.030;38.710;2023-03-14T02:24:17;99863.47;;;-1.59;60.14
74544;BME280;63016;55.030;38.710;2023-03-14T02:27:15;99865.66;;;-1.53;59.48
74544;BME280;63016;55.030;38.710;2023-03-14T02:29:54;99851.41;;;-1.57;60.34
74544;BME280;63016;55.030;38.710;2023-03-14T02:32:22;99862.28;;;-1.53;59.64
74544;BME280;63016;55.030;38.710;2023-03-14T02:34:59;99848.47;;;-1.51;60.27
74544;BME280;63016;55.030;38.710;2023-03-14T02:37:46;99842.53;;;-1.51;60.29
74544;BME280;63016;55.030;38.710;2023-03-14T02:40:13;99832.03;;;-1.47;60.28
74544;BME280;63016;55.030;38.710;2023-03-14T02:42:38;99828.56;;;-1.46;60.75
74544;BME280;63016;55.030;38.710;2023-03-14T02:47:39;99827.19;;;-1.37;60.24
74544;BME280;63016;55.030;38.710;2023-03-14T02:50:15;99816.16;;;-1.38;60.29
74544;BME280;63016;55.030;38.710;2023-03-14T02:52:43;99809.00;;;-1.33;60.07
74544;BME280;63016;55.030;38.710;2023-03-14T02:55:09;99810.59;;;-1.30;60.29
74544;BME280;63016;55.030;38.710;2023-03-14T02:57:34;99807.91;;;-1.28;59.97
74544;BME280;63016;55.030;38.710;2023-03-14T03:00:01;99812.88;;;-1.25;60.50
74544;BME280;63016;55.030;38.710;2023-03-14T03:02:30;99804.25;;;-1.24;60.13
74544;BME280;63016;55.030;38.710;2023-03-14T03:04:55;99792.47;;;-1.27;60.58
74544;BME280;63016;55.030;38.710;2023-03-14T03:07:20;99771.53;;;-1.19;60.62
74544;BME280;63016;55.030;38.710;2023-03-14T03:09:46;99763.34;;;-1.12;60.36
74544;BME280;63016;55.030;38.710;2023-03-14T03:12:12;99756.53;;;-1.11;60.83
74544;BME280;63016;55.030;38.710;2023-03-14T03:14:37;99744.91;;;-1.17;60.38
74544;BME280;63016;55.030;38.710;2023-03-14T03:17:06;99753.66;;;-1.07;61.08
74544;BME280;63016;55.030;38.710;2023-03-14T03:19:33;99747.25;;;-0.99;60.51
74544;BME280;63016;55.030;38.710;2023-03-14T03:21:58;99727.97;;;-1.05;60.73
74544;BME280;63016;55.030;38.710;2023-03-14T03:24:25;99738.34;;;-0.94;60.42
74544;BME280;63016;55.030;38.710;2023-03-14T03:26:51;99733.13;;;-0.92;60.33
74544;BME280;63016;55.030;38.710;2023-03-14T03:29:17;99737.44;;;-0.93;61.27
74544;BME280;63016;55.030;38.710;2023-03-14T03:31:42;99723.75;;;-0.92;60.89
74544;BME280;63016;55.030;38.710;2023-03-14T03:34:11;99726.63;;;-0.84;61.32
74544;BME280;63016;55.030;38.710;2023-03-14T03:36:36;99724.56;;;-0.79;60.85
74544;BME280;63016;55.030;38.710;2023-03-14T03:39:02;99720.91;;;-0.74;60.93
74544;BME280;63016;55.030;38.710;2023-03-14T03:41:28;99716.59;;;-0.74;61.15
74544;BME280;63016;55.030;38.710;2023-03-14T03:43:55;99721.97;;;-0.64;61.03
74544;BME280;63016;55.030;38.710;2023-03-14T03:46:21;99715.72;;;-0.60;61.62
74544;BME280;63016;55.030;38.710;2023-03-14T03:48:46;99707.84;;;-0.57;61.17
74544;BME280;63016;55.030;38.710;2023-03-14T03:51:16;99693.81;;;-0.52;61.55
74544;BME280;63016;55.030;38.710;2023-03-14T03:53:42;99696.06;;;-0.47;60.79
74544;BME280;63016;55.030;38.710;2023-03-14T03:56:08;99694.16;;;-0.43;61.11
74544;BME280;63016;55.030;38.710;2023-03-14T03:58:34;99694.56;;;-0.37;61.49
74544;BME280;63016;55.030;38.710;2023-03-14T04:01:00;99706.13;;;-0.31;61.43
74544;BME280;63016;55.030;38.710;2023-03-14T04:03:25;99679.38;;;-0.27;61.47
74544;BME280;63016;55.030;38.710;2023-03-14T04:06:02;99689.97;;;-0.19;61.95
74544;BME280;63016;55.030;38.710;2023-03-14T04:08:28;99687.91;;;-0.14;61.64
74544;BME280;63016;55.030;38.710;2023-03-14T04:10:58;99679.91;;;-0.09;61.64
74544;BME280;63016;55.030;38.710;2023-03-14T04:13:25;99680.19;;;-0.01;61.45
74544;BME280;63016;55.030;38.710;2023-03-14T04:15:51;99682.38;;;0.05;61.74
74544;BME280;63016;55.030;38.710;2023-03-14T04:18:17;99670.88;;;0.11;61.16
74544;BME280;63016;55.030;38.710;2023-03-14T04:20:42;99691.91;;;0.16;61.45
74544;BME280;63016;55.030;38.710;2023-03-14T04:23:09;99682.03;;;0.22;62.05
74544;BME280;63016;55.030;38.710;2023-03-14T04:25:34;99681.50;;;0.30;61.58
74544;BME280;63016;55.030;38.710;2023-03-14T04:28:00;99680.38;;;0.34;61.11
74544;BME280;63016;55.030;38.710;2023-03-14T04:30:26;99669.56;;;0.42;61.64
74544;BME280;63016;55.030;38.710;2023-03-14T04:32:51;99669.13;;;0.48;61.29
74544;BME280;63016;55.030;38.710;2023-03-14T04:35:17;99661.44;;;0.48;61.92
74544;BME280;63016;55.030;38.710;2023-03-14T04:37:42;99671.78;;;0.59;61.73
74544;BME280;63016;55.030;38.710;2023-03-14T04:40:09;99658.94;;;0.59;61.83
74544;BME280;63016;55.030;38.710;2023-03-14T04:42:35;99661.78;;;0.67;61.68
74544;BME280;63016;55.030;38.710;2023-03-14T04:45:01;99664.63;;;0.75;61.37
74544;BME280;63016;55.030;38.710;2023-03-14T04:47:27;99652.91;;;0.84;61.34
74544;BME280;63016;55.030;38.710;2023-03-14T04:49:52;99655.03;;;0.90;61.86
74544;BME280;63016;55.030;38.710;2023-03-14T04:52:18;99645.34;;;0.94;61.61
74544;BME280;63016;55.030;38.710;2023-03-14T04:54:43;99640.00;;;0.97;61.95
74544;BME280;63016;55.030;38.710;2023-03-14T04:57:09;99638.63;;;1.04;61.40
74544;BME280;63016;55.030;38.710;2023-03-14T04:59:34;99625.31;;;1.10;62.14
74544;BME280;63016;55.030;38.710;2023-03-14T05:02:00;99622.09;;;1.19;62.06
74544;BME280;63016;55.030;38.710;2023-03-14T05:04:25;99620.72;;;1.26;61.67
74544;BME280;63016;55.030;38.710;2023-03-14T05:06:51;99618.63;;;1.32;61.36
74544;BME280;63016;55.030;38.710;2023-03-14T05:09:17;99607.06;;;1.37;61.95
74544;BME280;63016;55.030;38.710;2023-03-14T05:11:42;99603.34;;;1.41;62.02
74544;BME280;63016;55.030;38.710;2023-03-14T05:14:08;99619.84;;;1.50;61.70
74544;BME280;63016;55.030;38.710;2023-03-14T05:16:34;99611.75;;;1.54;61.93
74544;BME280;63016;55.030;38.710;2023-03-14T05:18:59;99614.44;;;1.64;61.46
74544;BME280;63016;55.030;38.710;2023-03-14T05:21:26;99619.25;;;1.69;62.02
74544;BME280;63016;55.030;38.710;2023-03-14T05:23:52;99622.19;;;1.75;61.67
74544;BME280;63016;55.030;38.710;2023-03-14T05:26:18;99623.59;;;1.79;61.53
74544;BME280;63016;55.030;38.710;2023-03-14T05:28:43;99620.44;;;1.87;61.89
74544;BME280;63016;55.030;38.710;2023-03-14T05:31:09;99614.00;;;1.93;61.72
74544;BME280;63016;55.030;38.710;2023-03-14T05:33:35;99612.03;;;1.96;61.55
74544;BME280;63016;55.030;38.710;2023-03-14T05:36:00;99621.84;;;2.02;61.64
74544;BME280;63016;55.030;38.710;2023-03-14T05:38:26;99601.16;;;2.04;62.19
74544;BME280;63016;55.030;38.710;2023-03-14T05:40:51;99598.56;;;2.15;61.54
74544;BME280;63016;55.030;38.710;2023-03-14T05:43:17;99585.19;;;2.21;61.75
74544;BME280;63016;55.030;38.710;2023-03-14T05:45:43;99564.16;;;2.27;61.53
74544;BME280;63016;55.030;38.710;2023-03-14T05:48:08;99552.66;;;2.31;62.23
74544;BME280;63016;55.030;38.710;2023-03-14T05:50:34;99571.13;;;2.37;62.17
74544;BME280;63016;55.030;38.710;2023-03-14T05:52:59;99566.53;;;2.51;62.49
74544;BME280;63016;55.030;38.710;2023-03-14T05:55:25;99571.78;;;2.61;61.82
74544;BME280;63016;55.030;38.710;2023-03-14T05:57:52;99568.44;;;2.70;62.19
74544;BME280;63016;55.030;38.710;2023-03-14T06:00:18;99567.97;;;2.76;62.51
74544;BME280;63016;55.030;38.710;2023-03-14T06:02:44;99565.47;;;2.86;62.48
74544;BME280;63016;55.030;38.710;2023-03-14T06:05:10;99564.97;;;2.92;61.85
74544;BME280;63016;55.030;38.710;2023-03-14T06:07:35;99571.56;;;3.06;61.89
74544;BME280;63016;55.030;38.710;2023-03-14T06:10:02;99567.69;;;3.12;62.16
74544;BME280;63016;55.030;38.710;2023-03-14T06:12:28;99549.25;;;3.16;62.28
74544;BME280;63016;55.030;38.710;2023-03-14T06:14:53;99550.25;;;3.25;61.79
74544;BME280;63016;55.030;38.710;2023-03-14T06:17:19;99553.94;;;3.32;61.67
74544;BME280;63016;55.030;38.710;2023-03-14T06:19:45;99545.16;;;3.34;62.02
74544;BME280;63016;55.030;38.710;2023-03-14T06:22:10;99549.56;;;3.44;61.85
74544;BME280;63016;55.030;38.710;2023-03-14T06:24:36;99554.19;;;3.50;61.81
74544;BME280;63016;55.030;38.710;2023-03-14T06:27:01;99544.44;;;3.53;62.09
74544;BME280;63016;55.030;38.710;2023-03-14T06:29:28;99553.53;;;3.57;61.61
74544;BME280;63016;55.030;38.710;2023-03-14T06:31:54;99562.41;;;3.65;61.72
74544;BME280;63016;55.030;38.710;2023-03-14T06:34:20;99565.97;;;3.73;61.78
74544;BME280;63016;55.030;38.710;2023-03-14T06:36:45;99559.84;;;3.74;61.58
74544;BME280;63016;55.030;38.710;2023-03-14T06:39:11;99557.84;;;3.78;61.49
74544;BME280;63016;55.030;38.710;2023-03-14T06:41:37;99549.97;;;3.79;61.67
74544;BME280;63016;55.030;38.710;2023-03-14T06:44:02;99586.38;;;3.86;61.26
74544;BME280;63016;55.030;38.710;2023-03-14T06:46:28;99574.44;;;3.85;61.71
74544;BME280;63016;55.030;38.710;2023-03-14T06:48:53;99582.59;;;3.90;61.61
74544;BME280;63016;55.030;38.710;2023-03-14T06:51:19;99568.44;;;3.84;61.41
74544;BME280;63016;55.030;38.710;2023-03-14T06:53:45;99576.09;;;3.96;61.46
74544;BME280;63016;55.030;38.710;2023-03-14T06:56:10;99574.22;;;3.98;61.42
74544;BME280;63016;55.030;38.710;2023-03-14T06:58:36;99570.44;;;4.02;61.61
74544;BME280;63016;55.030;38.710;2023-03-14T07:01:02;99564.16;;;4.04;61.63
74544;BME280;63016;55.030;38.710;2023-03-14T07:03:27;99560.50;;;4.07;61.30
74544;BME280;63016;55.030;38.710;2023-03-14T07:05:53;99566.34;;;4.09;61.20
74544;BME280;63016;55.030;38.710;2023-03-14T07:08:19;99558.47;;;4.10;61.55
74544;BME280;63016;55.030;38.710;2023-03-14T07:10:44;99554.66;;;4.15;61.56
74544;BME280;63016;55.030;38.710;2023-03-14T07:13:10;99552.78;;;4.17;61.43
74544;BME280;63016;55.030;38.710;2023-03-14T07:15:36;99552.50;;;4.20;61.63
74544;BME280;63016;55.030;38.710;2023-03-14T07:18:01;99552.00;;;4.26;61.67
74544;BME280;63016;55.030;38.710;2023-03-14T07:20:27;99550.75;;;4.30;61.51
74544;BME280;63016;55.030;38.710;2023-03-14T07:22:54;99548.88;;;4.32;61.67
74544;BME280;63016;55.030;38.710;2023-03-14T07:25:19;99541.94;;;4.42;61.60
74544;BME280;63016;55.030;38.710;2023-03-14T07:27:46;99541.00;;;4.43;61.92
74544;BME280;63016;55.030;38.710;2023-03-14T07:30:13;99533.53;;;4.50;61.69
74544;BME280;63016;55.030;38.710;2023-03-14T07:32:39;99543.31;;;4.56;61.66
74544;BME280;63016;55.030;38.710;2023-03-14T07:35:05;99530.25;;;4.57;61.77
74544;BME280;63016;55.030;38.710;2023-03-14T07:37:31;99541.28;;;4.69;62.02
74544;BME280;63016;55.030;38.710;2023-03-14T07:39:56;99542.22;;;4.78;61.95
74544;BME280;63016;55.030;38.710;2023-03-14T07:42:22;99533.78;;;4.85;62.18
74544;BME280;63016;55.030;38.710;2023-03-14T07:44:48;99535.00;;;4.91;61.82
74544;BME280;63016;55.030;38.710;2023-03-14T07:47:13;99542.59;;;5.02;62.06
74544;BME280;63016;55.030;38.710;2023-03-14T07:49:39;99530.63;;;5.11;61.97
74544;BME280;63016;55.030;38.710;2023-03-14T07:52:04;99536.88;;;5.18;61.77
74544;BME280;63016;55.030;38.710;2023-03-14T07:54:30;99541.22;;;5.27;62.22
74544;BME280;63016;55.030;38.710;2023-03-14T07:56:55;99521.31;;;5.37;61.84
74544;BME280;63016;55.030;38.710;2023-03-14T07:59:21;99532.84;;;5.43;61.56
74544;BME280;63016;55.030;38.710;2023-03-14T08:01:46;99527.09;;;5.49;61.95
74544;BME280;63016;55.030;38.710;2023-03-14T08:04:12;99525.06;;;5.53;61.71
74544;BME280;63016;55.030;38.710;2023-03-14T08:06:38;99539.59;;;5.63;61.87
74544;BME280;63016;55.030;38.710;2023-03-14T08:09:04;99548.56;;;5.69;61.30
74544;BME280;63016;55.030;38.710;2023-03-14T08:11:29;99546.34;;;5.74;61.94
74544;BME280;63016;55.030;38.710;2023-03-14T08:13:55;99537.88;;;5.82;61.63
74544;BME280;63016;55.030;38.710;2023-03-14T08:16:21;99524.19;;;5.89;61.69
74544;BME280;63016;55.030;38.710;2023-03-14T08:18:47;99541.63;;;5.97;61.49
74544;BME280;63016;55.030;38.710;2023-03-14T08:21:13;99528.91;;;6.04;61.76
74544;BME280;63016;55.030;38.710;2023-03-14T08:23:39;99518.13;;;6.08;61.23
74544;BME280;63016;55.030;38.710;2023-03-14T08:26:05;99501.66;;;6.09;61.59
74544;BME280;63016;55.030;38.710;2023-03-14T08:28:30;99524.22;;;6.17;61.13
74544;BME280;63016;55.030;38.710;2023-03-14T08:30:59;99514.97;;;6.14;61.50
74544;BME280;63016;55.030;38.710;2023-03-14T08:33:25;99541.19;;;6.29;61.89
74544;BME280;63016;55.030;38.710;2023-03-14T08:35:52;99529.78;;;6.40;61.69
74544;BME280;63016;55.030;38.710;2023-03-14T08:38:18;99539.41;;;6.48;61.85
74544;BME280;63016;55.030;38.710;2023-03-14T08:40:44;99539.66;;;6.54;61.94
74544;BME280;63016;55.030;38.710;2023-03-14T08:43:09;99548.44;;;6.61;61.71
74544;BME280;63016;55.030;38.710;2023-03-14T08:45:35;99532.31;;;6.67;61.91
74544;BME280;63016;55.030;38.710;2023-03-14T08:48:00;99523.41;;;6.70;61.55
74544;BME280;63016;55.030;38.710;2023-03-14T08:50:26;99535.47;;;6.79;61.07
74544;BME280;63016;55.030;38.710;2023-03-14T08:52:52;99532.72;;;6.81;61.72
74544;BME280;63016;55.030;38.710;2023-03-14T08:55:17;99537.16;;;6.88;61.83
74544;BME280;63016;55.030;38.710;2023-03-14T08:57:43;99538.50;;;6.92;61.46
74544;BME280;63016;55.030;38.710;2023-03-14T09:00:09;99552.03;;;7.04;61.44
74544;BME280;63016;55.030;38.710;2023-03-14T09:02:43;99537.63;;;7.10;61.26
74544;BME280;63016;55.030;38.710;2023-03-14T09:05:10;99536.09;;;7.17;61.69
74544;BME280;63016;55.030;38.710;2023-03-14T09:07:36;99534.94;;;7.19;61.35
74544;BME280;63016;55.030;38.710;2023-03-14T09:10:02;99532.88;;;7.23;60.91
74544;BME280;63016;55.030;38.710;2023-03-14T09:12:27;99540.72;;;7.31;60.68
74544;BME280;63016;55.030;38.710;2023-03-14T09:14:53;99525.78;;;7.33;60.94
74544;BME280;63016;55.030;38.710;2023-03-14T09:17:18;99545.00;;;7.40;61.51
74544;BME280;63016;55.030;38.710;2023-03-14T09:19:44;99548.41;;;7.49;61.36
74544;BME280;63016;55.030;38.710;2023-03-14T09:22:09;99552.84;;;7.57;61.58
74544;BME280;63016;55.030;38.710;2023-03-14T09:24:35;99543.63;;;7.62;61.29
74544;BME280;63016;55.030;38.710;2023-03-14T09:27:00;99562.81;;;7.69;61.71
74544;BME280;63016;55.030;38.710;2023-03-14T09:29:26;99550.84;;;7.77;61.45
74544;BME280;63016;55.030;38.710;2023-03-14T09:31:52;99562.91;;;7.86;61.43
74544;BME280;63016;55.030;38.710;2023-03-14T09:34:17;99554.97;;;7.95;61.55
74544;BME280;63016;55.030;38.710;2023-03-14T09:36:44;99545.72;;;8.01;61.35
74544;BME280;63016;55.030;38.710;2023-03-14T09:39:10;99547.22;;;8.04;60.99
74544;BME280;63016;55.030;38.710;2023-03-14T09:41:38;99537.97;;;8.09;61.21
74544;BME280;63016;55.030;38.710;2023-03-14T09:46:35;99534.59;;;8.25;61.21
74544;BME280;63016;55.030;38.710;2023-03-14T09:49:02;99536.38;;;8.24;60.59
74544;BME280;63016;55.030;38.710;2023-03-14T09:51:28;99531.69;;;8.28;60.74
74544;BME280;63016;55.030;38.710;2023-03-14T09:53:54;99532.03;;;8.33;61.24
74544;BME280;63016;55.030;38.710;2023-03-14T09:56:28;99531.56;;;8.38;60.24
74544;BME280;63016;55.030;38.710;2023-03-14T09:58:57;99533.03;;;8.40;61.15
74544;BME280;63016;55.030;38.710;2023-03-14T10:01:28;99549.16;;;8.52;60.82
74544;BME280;63016;55.030;38.710;2023-03-14T10:03:57;99544.28;;;8.57;60.67
74544;BME280;63016;55.030;38.710;2023-03-14T10:06:30;99543.44;;;8.65;60.69
74544;BME280;63016;55.030;38.710;2023-03-14T10:08:56;99547.53;;;8.67;60.89
74544;BME280;63016;55.030;38.710;2023-03-14T10:11:23;99539.88;;;8.74;60.44
74544;BME280;63016;55.030;38.710;2023-03-14T10:16:35;99560.06;;;8.72;60.44
74544;BME280;63016;55.030;38.710;2023-03-14T10:19:07;99550.16;;;8.75;60.33
74544;BME280;63016;55.030;38.710;2023-03-14T10:21:42;99555.50;;;8.82;61.32
74544;BME280;63016;55.030;38.710;2023-03-14T10:24:25;99547.84;;;8.89;60.84
74544;BME280;63016;55.030;38.710;2023-03-14T10:26:59;99549.47;;;8.98;60.38
74544;BME280;63016;55.030;38.710;2023-03-14T10:29:30;99553.22;;;9.04;61.02
74544;BME280;63016;55.030;38.710;2023-03-14T10:32:02;99553.72;;;9.15;60.35
74544;BME280;63016;55.030;38.710;2023-03-14T10:34:38;99554.34;;;9.25;60.83
74544;BME280;63016;55.030;38.710;2023-03-14T10:37:18;99543.09;;;9.33;60.10
74544;BME280;63016;55.030;38.710;2023-03-14T10:39:49;99551.88;;;9.40;60.84
74544;BME280;63016;55.030;38.710;2023-03-14T10:42:20;99540.78;;;9.46;60.44
74544;BME280;63016;55.030;38.710;2023-03-14T10:44:51;99549.56;;;9.53;60.36
74544;BME280;63016;55.030;38.710;2023-03-14T10:47:23;99547.28;;;9.59;60.60
74544;BME280;63016;55.030;38.710;2023-03-14T10:49:49;99537.78;;;9.66;60.54
74544;BME280;63016;55.030;38.710;2023-03-14T10:52:28;99539.56;;;9.73;60.25
74544;BME280;63016;55.030;38.710;2023-03-14T10:55:01;99541.78;;;9.85;60.66
74544;BME280;63016;55.030;38.710;2023-03-14T10:57:26;99555.94;;;9.90;60.63
74544;BME280;63016;55.030;38.710;2023-03-14T10:59:54;99552.97;;;10.01;60.72
74544;BME280;63016;55.030;38.710;2023-03-14T11:02:37;99536.66;;;10.08;60.47
74544;BME280;63016;55.030;38.710;2023-03-14T11:16:47;99528.75;;;10.24;60.22
74544;BME280;63016;55.030;38.710;2023-03-14T11:30:54;99550.88;;;10.36;59.13
74544;BME280;63016;55.030;38.710;2023-03-14T11:36:08;99530.34;;;10.33;58.69
74544;BME280;63016;55.030;38.710;2023-03-14T11:38:48;99526.63;;;10.27;58.80
74544;BME280;63016;55.030;38.710;2023-03-14T11:41:33;99545.06;;;10.26;59.11
74544;BME280;63016;55.030;38.710;2023-03-14T11:44:04;99531.38;;;10.24;59.32
74544;BME280;63016;55.030;38.710;2023-03-14T11:46:41;99521.47;;;10.11;59.22
74544;BME280;63016;55.030;38.710;2023-03-14T11:49:36;99517.53;;;10.15;59.54
74544;BME280;63016;55.030;38.710;2023-03-14T11:52:29;99533.38;;;10.05;58.57
74544;BME280;63016;55.030;38.710;2023-03-14T11:57:30;99525.03;;;9.87;59.26
74544;BME280;63016;55.030;38.710;2023-03-14T12:02:33;99528.94;;;9.83;58.42
74544;BME280;63016;55.030;38.710;2023-03-14T12:05:25;99528.47;;;9.79;59.04
74544;BME280;63016;55.030;38.710;2023-03-14T12:10:46;99548.25;;;9.58;58.26
74544;BME280;63016;55.030;38.710;2023-03-14T12:13:15;99550.22;;;9.47;59.17
74544;BME280;63016;55.030;38.710;2023-03-14T12:15:48;99552.31;;;9.52;58.48
74544;BME280;63016;55.030;38.710;2023-03-14T12:18:20;99558.56;;;9.43;58.60
74544;BME280;63016;55.030;38.710;2023-03-14T12:20:54;99547.34;;;9.34;58.62
74544;BME280;63016;55.030;38.710;2023-03-14T12:23:23;99534.31;;;9.26;58.83
74544;BME280;63016;55.030;38.710;2023-03-14T12:28:42;99524.75;;;9.10;58.39
74544;BME280;63016;55.030;38.710;2023-03-14T12:39:29;99541.69;;;8.82;58.86
74544;BME280;63016;55.030;38.710;2023-03-14T12:42:13;99547.19;;;8.79;59.18
74544;BME280;63016;55.030;38.710;2023-03-14T12:44:43;99567.88;;;8.80;59.33
74544;BME280;63016;55.030;38.710;2023-03-14T12:49:46;99553.53;;;8.68;58.75
74544;BME280;63016;55.030;38.710;2023-03-14T12:52:19;99560.72;;;8.66;58.62
74544;BME280;63016;55.030;38.710;2023-03-14T12:54:57;99571.41;;;8.63;58.17
74544;BME280;63016;55.030;38.710;2023-03-14T12:57:37;99564.59;;;8.62;58.69
74544;BME280;63016;55.030;38.710;2023-03-14T13:00:30;99549.97;;;8.61;58.82
74544;BME280;63016;55.030;38.710;2023-03-14T13:03:21;99550.47;;;8.56;58.30
74544;BME280;63016;55.030;38.710;2023-03-14T13:05:58;99558.06;;;8.49;58.72
74544;BME280;63016;55.030;38.710;2023-03-14T13:08:44;99569.44;;;8.48;58.98
74544;BME280;63016;55.030;38.710;2023-03-14T13:11:12;99567.16;;;8.45;58.75
74544;BME280;63016;55.030;38.710;2023-03-14T13:13:45;99567.81;;;8.39;58.13
74544;BME280;63016;55.030;38.710;2023-03-14T13:16:18;99572.63;;;8.34;58.40
74544;BME280;63016;55.030;38.710;2023-03-14T13:19:09;99581.88;;;8.29;58.91
74544;BME280;63016;55.030;38.710;2023-03-14T13:21:37;99570.66;;;8.20;58.15
74544;BME280;63016;55.030;38.710;2023-03-14T13:24:05;99581.69;;;8.14;58.74
74544;BME280;63016;55.030;38.710;2023-03-14T13:26:43;99567.53;;;8.08;58.30
74544;BME280;63016;55.030;38.710;2023-03-14T13:29:16;99559.19;;;7.96;58.53
74544;BME280;63016;55.030;38.710;2023-03-14T13:31:46;99568.59;;;7.97;58.71
74544;BME280;63016;55.030;38.710;2023-03-14T13:34:12;99567.97;;;7.95;58.69
74544;BME280;63016;55.030;38.710;2023-03-14T13:36:38;99580.31;;;7.93;58.54
74544;BME280;63016;55.030;38.710;2023-03-14T13:39:18;99585.97;;;7.89;57.96
74544;BME280;63016;55.030;38.710;2023-03-14T13:41:45;99582.88;;;7.85;58.52
74544;BME280;63016;55.030;38.710;2023-03-14T13:44:26;99578.28;;;7.79;57.98
74544;BME280;63016;55.030;38.710;2023-03-14T13:47:00;99573.69;;;7.73;58.26
74544;BME280;63016;55.030;38.710;2023-03-14T13:49:27;99582.81;;;7.77;58.41
74544;BME280;63016;55.030;38.710;2023-03-14T13:51:54;99568.16;;;7.68;58.79
74544;BME280;63016;55.030;38.710;2023-03-14T13:54:21;99576.72;;;7.60;58.26
74544;BME280;63016;55.030;38.710;2023-03-14T13:56:48;99573.91;;;7.54;58.03
74544;BME280;63016;55.030;38.710;2023-03-14T13:59:27;99572.31;;;7.53;58.60
74544;BME280;63016;55.030;38.710;2023-03-14T14:01:53;99572.91;;;7.46;58.32
74544;BME280;63016;55.030;38.710;2023-03-14T14:04:22;99580.19;;;7.43;58.34
74544;BME280;63016;55.030;38.710;2023-03-14T14:06:55;99577.41;;;7.36;58.33